Time;durP1;ratioP1;P1;durP2;ratioP2;P2;SDS_P1;SDS_P2;PMS_P1;PMS_P2;Temp;Humidity;BMP_temperature;BMP_pressure;BME280_temperature;BME280_humidity;BME280_pressure;Samples;Min_cycle;Max_cycle;Signal;HPM_P1;HPM_P2
2022/04/27 00:01:27;;;;;;;16.10;2.95;;;;;;;;;;4974809;28;20187;-66
2022/04/27 00:03:53;;;;;;;9.73;2.90;;;;;;;;;;4974594;28;20537;-66
2022/04/27 00:06:19;;;;;;;9.50;2.50;;;;;;;;;;4975778;28;20101;-65
2022/04/27 00:08:47;;;;;;;14.32;2.80;;;;;;;;;;4968837;28;20026;-68
2022/04/27 00:11:12;;;;;;;17.20;2.72;;;;;;;;;;4976898;28;20031;-66
2022/04/27 00:13:39;;;;;;;14.18;2.60;;;;;;;;;;4974405;28;20042;-64
2022/04/27 00:16:06;;;;;;;9.25;2.28;;;;;;;;;;4974842;28;20022;-66
2022/04/27 00:18:32;;;;;;;13.85;2.28;;;;;;;;;;4994026;28;20038;-67
2022/04/27 00:20:58;;;;;;;9.70;2.65;;;;;;;;;;4976957;28;20429;-67
2022/04/27 00:23:25;;;;;;;10.38;2.83;;;;;;;;;;4971884;28;20550;-67
2022/04/27 00:25:52;;;;;;;14.20;2.67;;;;;;;;;;4974818;28;20114;-68
2022/04/27 00:28:19;;;;;;;8.10;2.33;;;;;;;;;;4974788;28;20504;-67
2022/04/27 00:30:44;;;;;;;10.27;2.22;;;;;;;;;;4957294;28;20026;-68
2022/04/27 00:33:11;;;;;;;7.68;2.08;;;;;;;;;;4978870;28;20409;-70
2022/04/27 00:35:37;;;;;;;9.63;2.15;;;;;;;;;;4994038;28;20101;-66
2022/04/27 00:38:03;;;;;;;7.25;2.00;;;;;;;;;;4994103;28;20038;-68
2022/04/27 00:40:29;;;;;;;4.97;2.22;;;;;;;;;;4994211;28;20076;-69
2022/04/27 00:42:55;;;;;;;7.20;2.35;;;;;;;;;;5006577;28;20481;-67
2022/04/27 00:45:21;;;;;;;10.20;2.50;;;;;;;;;;4973066;28;20034;-66
2022/04/27 00:47:47;;;;;;;9.45;2.53;;;;;;;;;;4974409;28;20034;-66
2022/04/27 00:50:13;;;;;;;10.73;2.15;;;;;;;;;;4972911;28;20037;-64
2022/04/27 00:52:39;;;;;;;7.13;2.15;;;;;;;;;;4972523;28;20509;-66
2022/04/27 00:55:05;;;;;;;6.63;2.20;;;;;;;;;;4970500;28;20031;-68
2022/04/27 00:57:33;;;;;;;9.18;2.08;;;;;;;;;;4974275;28;20037;-68
2022/04/27 00:59:59;;;;;;;4.93;2.10;;;;;;;;;;4989134;28;20038;-66
2022/04/27 01:02:24;;;;;;;8.82;3.10;;;;;;;;;;4972692;28;20598;-67
2022/04/27 01:04:51;;;;;;;10.82;3.08;;;;;;;;;;4973991;28;20461;-67
2022/04/27 01:07:17;;;;;;;13.00;2.70;;;;;;;;;;4972502;28;20494;-67
2022/04/27 01:09:44;;;;;;;13.25;2.70;;;;;;;;;;4972599;28;20097;-67
2022/04/27 01:12:12;;;;;;;14.45;2.67;;;;;;;;;;4972544;28;20093;-65
2022/04/27 01:14:48;;;;;;;9.82;3.10;;;;;;;;;;4972512;28;20031;-65
2022/04/27 01:17:14;;;;;;;8.13;2.83;;;;;;;;;;4972643;28;20042;-71
2022/04/27 01:19:40;;;;;;;10.57;2.78;;;;;;;;;;4973710;28;20025;-70
2022/04/27 01:22:07;;;;;;;12.65;2.67;;;;;;;;;;4984711;28;20042;-68
2022/04/27 01:24:40;;;;;;;20.40;3.05;;;;;;;;;;4983422;28;20023;-71
2022/04/27 01:27:06;;;;;;;11.20;3.00;;;;;;;;;;4971656;28;20038;-69
2022/04/27 01:29:33;;;;;;;9.98;2.90;;;;;;;;;;4972294;28;20034;-69
2022/04/27 01:32:01;;;;;;;6.72;2.50;;;;;;;;;;4988537;28;20448;-65
2022/04/27 01:34:28;;;;;;;13.30;3.45;;;;;;;;;;4973540;28;20046;-66
2022/04/27 01:36:54;;;;;;;13.77;3.83;;;;;;;;;;4972407;28;20117;-66
2022/04/27 01:39:24;;;;;;;8.55;2.78;;;;;;;;;;4972424;28;20504;-66
2022/04/27 01:41:50;;;;;;;8.43;2.90;;;;;;;;;;4973226;28;20492;-64
2022/04/27 01:44:17;;;;;;;6.63;2.72;;;;;;;;;;4972970;28;20027;-66
2022/04/27 01:46:43;;;;;;;8.63;3.13;;;;;;;;;;4971581;28;20066;-66
2022/04/27 01:49:10;;;;;;;8.07;2.90;;;;;;;;;;4972891;28;20050;-66
2022/04/27 01:54:21;;;;;;;13.23;3.63;;;;;;;;;;4973134;28;20030;-68
2022/04/27 01:56:50;;;;;;;8.55;3.00;;;;;;;;;;4968890;28;20038;-65
2022/04/27 01:59:16;;;;;;;9.13;3.20;;;;;;;;;;4971406;28;20131;-65
2022/04/27 02:01:43;;;;;;;6.30;3.03;;;;;;;;;;4988117;28;20413;-65
2022/04/27 02:04:13;;;;;;;5.60;2.90;;;;;;;;;;4973220;28;20044;-68
2022/04/27 02:06:43;;;;;;;12.88;3.55;;;;;;;;;;4971862;28;20386;-66
2022/04/27 02:09:14;;;;;;;15.57;4.03;;;;;;;;;;4972318;28;20085;-65
2022/04/27 02:11:44;;;;;;;17.88;4.78;;;;;;;;;;4971999;28;20034;-66
2022/04/27 02:14:10;;;;;;;13.00;3.95;;;;;;;;;;4985677;28;20497;-68
2022/04/27 02:16:38;;;;;;;10.73;3.05;;;;;;;;;;4971410;28;20117;-68
2022/04/27 02:19:08;;;;;;;10.50;3.05;;;;;;;;;;4987742;28;20042;-68
2022/04/27 02:21:35;;;;;;;11.38;3.35;;;;;;;;;;4971706;28;20524;-66
2022/04/27 02:24:01;;;;;;;11.27;3.85;;;;;;;;;;4972529;28;20106;-66
2022/04/27 02:26:26;;;;;;;9.85;3.58;;;;;;;;;;4986918;28;20382;-65
2022/04/27 02:28:54;;;;;;;7.45;3.80;;;;;;;;;;4954230;28;20367;-64
2022/04/27 02:31:21;;;;;;;17.50;4.22;;;;;;;;;;4983087;28;20089;-65
2022/04/27 02:33:46;;;;;;;12.20;3.00;;;;;;;;;;4971905;28;20059;-65
2022/04/27 02:36:13;;;;;;;9.93;3.30;;;;;;;;;;4972523;28;20621;-65
2022/04/27 02:38:42;;;;;;;9.70;3.20;;;;;;;;;;4981608;28;20433;-65
2022/04/27 02:41:12;;;;;;;7.68;2.50;;;;;;;;;;4971530;28;20043;-65
2022/04/27 02:43:39;;;;;;;9.48;2.80;;;;;;;;;;4971501;28;20031;-65
2022/04/27 02:46:07;;;;;;;9.05;2.97;;;;;;;;;;4971300;28;20449;-66
2022/04/27 02:48:33;;;;;;;12.13;2.88;;;;;;;;;;4971169;28;20065;-66
2022/04/27 02:53:43;;;;;;;9.35;3.97;;;;;;;;;;4987329;28;20046;-66
2022/04/27 02:56:10;;;;;;;8.20;2.85;;;;;;;;;;4971301;28;20613;-66
2022/04/27 02:58:37;;;;;;;8.80;3.15;;;;;;;;;;4971010;28;20130;-65
2022/04/27 03:01:04;;;;;;;9.27;2.60;;;;;;;;;;4969374;28;20031;-64
2022/04/27 03:03:30;;;;;;;9.27;2.75;;;;;;;;;;4972419;28;20058;-65
2022/04/27 03:05:57;;;;;;;11.65;3.25;;;;;;;;;;4971022;28;20130;-66
2022/04/27 03:08:23;;;;;;;13.63;3.40;;;;;;;;;;4987518;28;20169;-67
2022/04/27 03:10:51;;;;;;;7.88;2.88;;;;;;;;;;4987380;28;20434;-65
2022/04/27 03:13:20;;;;;;;13.88;3.72;;;;;;;;;;4971295;28;20035;-66
2022/04/27 03:15:49;;;;;;;10.30;2.65;;;;;;;;;;4987182;28;20118;-66
2022/04/27 03:18:19;;;;;;;11.48;3.28;;;;;;;;;;4972289;28;20069;-65
2022/04/27 03:20:50;;;;;;;13.23;2.88;;;;;;;;;;4970822;28;20046;-66
2022/04/27 03:23:17;;;;;;;11.13;3.00;;;;;;;;;;4971874;28;20062;-66
2022/04/27 03:25:48;;;;;;;11.85;3.00;;;;;;;;;;4974198;28;20027;-64
2022/04/27 03:28:14;;;;;;;23.40;4.82;;;;;;;;;;4990878;28;20034;-66
2022/04/27 03:30:40;;;;;;;26.17;4.60;;;;;;;;;;4975492;28;20133;-65
2022/04/27 03:33:19;;;;;;;14.13;4.05;;;;;;;;;;4960793;28;20062;-65
2022/04/27 03:35:46;;;;;;;19.58;4.47;;;;;;;;;;4974076;28;20393;-64
2022/04/27 03:38:14;;;;;;;16.83;4.00;;;;;;;;;;4991115;28;20030;-67
2022/04/27 03:40:43;;;;;;;19.42;4.57;;;;;;;;;;4974306;28;20122;-66
2022/04/27 03:43:10;;;;;;;14.45;4.05;;;;;;;;;;4974397;28;20122;-66
2022/04/27 03:45:37;;;;;;;5.75;3.05;;;;;;;;;;4974011;28;20046;-66
2022/04/27 03:48:04;;;;;;;15.15;3.17;;;;;;;;;;4974100;28;20509;-65
2022/04/27 03:50:31;;;;;;;19.65;3.92;;;;;;;;;;4974346;28;20126;-64
2022/04/27 03:52:59;;;;;;;14.65;2.90;;;;;;;;;;4975011;28;20035;-66
2022/04/27 03:55:28;;;;;;;11.30;3.22;;;;;;;;;;4973758;28;20092;-65
2022/04/27 03:57:55;;;;;;;13.70;3.47;;;;;;;;;;4989425;28;20070;-65
2022/04/27 04:00:22;;;;;;;8.85;2.90;;;;;;;;;;4973447;28;20061;-67
2022/04/27 04:03:01;;;;;;;14.40;3.47;;;;;;;;;;4989068;28;20042;-65
2022/04/27 04:05:28;;;;;;;17.50;3.90;;;;;;;;;;4971039;28;20038;-66
2022/04/27 04:07:54;;;;;;;16.65;3.50;;;;;;;;;;4974553;28;20031;-67
2022/04/27 04:10:21;;;;;;;14.30;3.55;;;;;;;;;;4973511;28;20093;-66
2022/04/27 04:12:49;;;;;;;15.23;3.45;;;;;;;;;;4989664;28;20038;-67
2022/04/27 04:15:37;;;;;;;12.50;3.97;;;;;;;;;;4975011;28;20062;-66
2022/04/27 04:18:26;;;;;;;12.43;3.55;;;;;;;;;;4980170;28;20516;-65
2022/04/27 04:21:30;;;;;;;13.63;3.38;;;;;;;;;;4991762;28;20057;-72
2022/04/27 04:24:02;;;;;;;14.25;2.80;;;;;;;;;;4975286;28;20030;-74
2022/04/27 04:29:15;;;;;;;13.32;3.78;;;;;;;;;;4972799;28;20456;-72
2022/04/27 04:31:42;;;;;;;14.75;3.67;;;;;;;;;;4973224;28;20118;-74
2022/04/27 04:34:25;;;;;;;18.65;4.45;;;;;;;;;;4974001;28;20035;-73
2022/04/27 04:36:52;;;;;;;16.33;2.95;;;;;;;;;;4970640;28;20204;-74
2022/04/27 04:39:18;;;;;;;10.57;2.45;;;;;;;;;;4973945;28;20023;-73
2022/04/27 04:41:46;;;;;;;11.38;3.40;;;;;;;;;;4972343;28;20087;-73
2022/04/27 04:44:12;;;;;;;9.25;2.40;;;;;;;;;;4988121;28;20251;-73
2022/04/27 04:46:57;;;;;;;13.00;3.83;;;;;;;;;;4973938;28;20077;-75
2022/04/27 04:49:42;;;;;;;13.88;2.72;;;;;;;;;;4973097;28;20101;-74
2022/04/27 04:52:27;;;;;;;27.83;4.60;;;;;;;;;;4973386;28;20401;-72
2022/04/27 04:55:12;;;;;;;11.00;3.00;;;;;;;;;;4973717;28;20046;-74
2022/04/27 04:57:58;;;;;;;10.32;2.67;;;;;;;;;;4971628;28;20053;-73
2022/04/27 05:00:45;;;;;;;24.70;3.95;;;;;;;;;;4972514;28;20074;-75
2022/04/27 05:03:30;;;;;;;24.52;4.88;;;;;;;;;;4988009;28;20500;-75
2022/04/27 05:06:11;;;;;;;19.48;3.53;;;;;;;;;;4973040;28;20481;-74
2022/04/27 05:08:44;;;;;;;17.88;3.25;;;;;;;;;;4973212;28;20042;-75
2022/04/27 05:11:40;;;;;;;13.30;3.05;;;;;;;;;;4954738;28;20058;-74
2022/04/27 05:14:22;;;;;;;10.95;2.88;;;;;;;;;;4973189;28;20394;-74
2022/04/27 05:17:10;;;;;;;14.90;2.65;;;;;;;;;;4972890;28;20486;-74
2022/04/27 05:19:56;;;;;;;12.20;3.28;;;;;;;;;;4963090;28;20089;-74
2022/04/27 05:22:47;;;;;;;9.32;2.80;;;;;;;;;;4965967;28;20501;-74
2022/04/27 05:25:19;;;;;;;8.43;2.50;;;;;;;;;;4974079;28;20039;-74
2022/04/27 05:28:04;;;;;;;10.52;2.95;;;;;;;;;;4972805;28;20427;-75
2022/04/27 05:33:45;;;;;;;11.95;2.60;;;;;;;;;;4988829;28;20102;-71
2022/04/27 05:36:32;;;;;;;12.60;3.10;;;;;;;;;;4988914;28;20130;-75
2022/04/27 05:39:18;;;;;;;12.48;3.28;;;;;;;;;;4974049;28;20373;-74
2022/04/27 05:41:53;;;;;;;8.40;2.67;;;;;;;;;;4988576;28;20041;-71
2022/04/27 05:44:58;;;;;;;12.23;2.33;;;;;;;;;;4952204;29;20094;-71
2022/04/27 05:47:33;;;;;;;9.77;2.50;;;;;;;;;;4935327;29;20126;-72
2022/04/27 05:49:59;;;;;;;11.23;3.05;;;;;;;;;;4963546;28;20070;-70
2022/04/27 05:52:52;;;;;;;9.98;2.35;;;;;;;;;;4958966;28;20061;-74
2022/04/27 05:55:43;;;;;;;8.63;2.80;;;;;;;;;;4975448;28;20077;-74
2022/04/27 05:58:30;;;;;;;10.57;2.20;;;;;;;;;;4977013;28;20065;-74
2022/04/27 06:01:10;;;;;;;19.77;3.42;;;;;;;;;;4972318;28;20049;-75
2022/04/27 06:03:48;;;;;;;9.88;2.85;;;;;;;;;;4988524;28;20042;-75
2022/04/27 06:06:14;;;;;;;20.10;3.95;;;;;;;;;;4972021;28;20535;-73
2022/04/27 06:08:40;;;;;;;9.18;2.42;;;;;;;;;;4973849;28;20490;-74
2022/04/27 06:11:12;;;;;;;10.65;2.55;;;;;;;;;;4972225;28;20041;-72
2022/04/27 06:13:57;;;;;;;10.15;2.30;;;;;;;;;;4973198;28;20047;-74
2022/04/27 06:16:34;;;;;;;8.85;2.25;;;;;;;;;;4971795;28;20041;-74
2022/04/27 06:19:13;;;;;;;9.38;2.33;;;;;;;;;;4972178;28;20445;-73
2022/04/27 06:21:39;;;;;;;8.60;2.05;;;;;;;;;;4971385;28;20042;-76
2022/04/27 06:24:06;;;;;;;16.20;2.83;;;;;;;;;;4971412;28;20081;-76
2022/04/27 06:26:33;;;;;;;18.10;3.03;;;;;;;;;;4987911;28;20105;-74
2022/04/27 06:29:01;;;;;;;9.90;2.50;;;;;;;;;;4971935;28;20019;-73
2022/04/27 06:31:27;;;;;;;9.05;2.90;;;;;;;;;;4970869;28;20043;-72
2022/04/27 06:33:58;;;;;;;20.67;2.42;;;;;;;;;;4972868;28;20474;-75
2022/04/27 06:36:24;;;;;;;10.68;1.95;;;;;;;;;;4985109;28;20030;-74
2022/04/27 06:38:50;;;;;;;12.15;2.55;;;;;;;;;;4971895;28;20397;-72
2022/04/27 06:41:27;;;;;;;11.43;2.63;;;;;;;;;;4973176;28;20035;-75
2022/04/27 06:44:12;;;;;;;8.38;2.38;;;;;;;;;;4973324;28;20057;-71
2022/04/27 06:46:56;;;;;;;7.35;2.63;;;;;;;;;;4973090;28;20070;-72
2022/04/27 06:49:41;;;;;;;8.77;2.78;;;;;;;;;;4972925;28;20076;-69
2022/04/27 06:52:48;;;;;;;12.88;2.50;;;;;;;;;;4950611;29;20063;-74
2022/04/27 06:55:33;;;;;;;17.45;2.40;;;;;;;;;;4951291;28;20129;-77
2022/04/27 06:58:18;;;;;;;10.27;2.22;;;;;;;;;;4967133;28;20085;-70
2022/04/27 07:00:55;;;;;;;12.45;3.08;;;;;;;;;;4971833;28;20042;-70
2022/04/27 07:03:21;;;;;;;10.70;2.50;;;;;;;;;;4972767;28;20042;-72
2022/04/27 07:05:47;;;;;;;13.43;3.00;;;;;;;;;;4976334;28;20026;-72
2022/04/27 07:08:13;;;;;;;9.45;2.10;;;;;;;;;;4975072;28;20050;-69
2022/04/27 07:10:39;;;;;;;7.82;2.50;;;;;;;;;;4976208;28;20035;-69
2022/04/27 07:13:05;;;;;;;9.57;2.42;;;;;;;;;;4976212;28;20042;-73
2022/04/27 07:15:31;;;;;;;14.50;2.75;;;;;;;;;;4976195;28;20485;-72
2022/04/27 07:17:57;;;;;;;12.20;3.17;;;;;;;;;;4976099;28;20031;-70
2022/04/27 07:20:23;;;;;;;8.48;2.40;;;;;;;;;;4975049;28;20035;-72
2022/04/27 07:22:49;;;;;;;18.17;2.60;;;;;;;;;;4975980;28;20049;-72
2022/04/27 07:25:18;;;;;;;16.70;2.55;;;;;;;;;;4976137;28;20512;-67
2022/04/27 07:27:45;;;;;;;19.88;3.72;;;;;;;;;;4975851;28;20062;-70
2022/04/27 07:30:11;;;;;;;12.40;2.30;;;;;;;;;;4976016;28;20386;-70
2022/04/27 07:32:36;;;;;;;17.70;2.85;;;;;;;;;;4975397;28;20043;-73
2022/04/27 07:35:03;;;;;;;10.57;2.65;;;;;;;;;;4975627;28;20037;-70
2022/04/27 07:37:29;;;;;;;7.93;2.22;;;;;;;;;;4974596;28;20022;-72
2022/04/27 07:39:54;;;;;;;17.05;2.55;;;;;;;;;;4975025;28;20363;-75
2022/04/27 07:42:21;;;;;;;12.85;2.53;;;;;;;;;;4974901;28;20386;-71
2022/04/27 07:44:47;;;;;;;11.27;2.47;;;;;;;;;;4975677;28;20446;-74
2022/04/27 07:47:13;;;;;;;8.18;2.30;;;;;;;;;;4975494;28;20142;-72
2022/04/27 07:49:39;;;;;;;9.68;2.50;;;;;;;;;;4974495;28;20467;-72
2022/04/27 07:52:05;;;;;;;10.23;2.20;;;;;;;;;;4975615;28;20148;-75
2022/04/27 07:54:31;;;;;;;16.90;3.03;;;;;;;;;;4975414;28;20429;-69
2022/04/27 07:56:57;;;;;;;12.57;2.92;;;;;;;;;;4975287;28;20035;-71
2022/04/27 07:59:23;;;;;;;11.27;2.50;;;;;;;;;;4973186;28;20338;-75
2022/04/27 08:01:48;;;;;;;12.85;3.10;;;;;;;;;;4977809;28;20034;-71
2022/04/27 08:04:16;;;;;;;8.77;3.10;;;;;;;;;;4985780;28;20034;-75
2022/04/27 08:06:42;;;;;;;10.70;2.67;;;;;;;;;;4993377;28;20038;-73
2022/04/27 08:09:08;;;;;;;15.05;2.78;;;;;;;;;;4987813;28;20022;-73
2022/04/27 08:11:34;;;;;;;10.07;1.83;;;;;;;;;;4973910;28;20030;-73
2022/04/27 08:14:00;;;;;;;16.75;3.10;;;;;;;;;;4974975;28;20101;-71
2022/04/27 08:16:25;;;;;;;17.48;3.08;;;;;;;;;;4972389;28;20444;-74
2022/04/27 08:18:51;;;;;;;17.85;3.20;;;;;;;;;;4974630;28;20078;-74
2022/04/27 08:21:21;;;;;;;14.98;2.80;;;;;;;;;;4974804;28;20093;-75
2022/04/27 08:23:48;;;;;;;11.52;2.20;;;;;;;;;;4974555;28;20035;-75
2022/04/27 08:26:15;;;;;;;13.90;2.47;;;;;;;;;;4974898;28;20069;-76
2022/04/27 08:28:41;;;;;;;17.17;2.72;;;;;;;;;;4975075;28;20168;-76
2022/04/27 08:31:09;;;;;;;11.98;2.83;;;;;;;;;;4973194;28;20061;-75
2022/04/27 08:33:35;;;;;;;15.20;2.67;;;;;;;;;;4972510;28;20035;-70
2022/04/27 08:36:03;;;;;;;10.75;2.28;;;;;;;;;;4973471;28;20065;-70
2022/04/27 08:38:29;;;;;;;9.93;2.60;;;;;;;;;;4972040;28;20031;-73
2022/04/27 08:40:56;;;;;;;7.57;2.00;;;;;;;;;;4974006;28;20485;-75
2022/04/27 08:43:23;;;;;;;9.20;2.35;;;;;;;;;;4973758;28;20030;-77
2022/04/27 08:45:49;;;;;;;9.75;2.22;;;;;;;;;;4973318;28;20244;-76
2022/04/27 08:48:17;;;;;;;13.75;2.63;;;;;;;;;;4971993;28;20099;-73
2022/04/27 08:50:45;;;;;;;17.63;3.08;;;;;;;;;;4972241;28;20047;-71
2022/04/27 08:53:11;;;;;;;11.85;2.45;;;;;;;;;;4971248;28;20081;-69
2022/04/27 08:55:39;;;;;;;9.98;2.90;;;;;;;;;;4971967;28;20355;-70
2022/04/27 08:58:15;;;;;;;12.38;2.50;;;;;;;;;;4971885;28;20043;-72
2022/04/27 09:00:43;;;;;;;14.32;2.92;;;;;;;;;;4971493;28;20034;-73
2022/04/27 09:03:31;;;;;;;17.60;2.47;;;;;;;;;;4972953;28;20039;-70
2022/04/27 09:05:59;;;;;;;17.45;2.92;;;;;;;;;;4973840;28;20056;-75
2022/04/27 09:08:26;;;;;;;15.05;2.78;;;;;;;;;;4973226;28;20026;-72
2022/04/27 09:11:15;;;;;;;12.30;2.80;;;;;;;;;;4972569;28;20058;-71
2022/04/27 09:14:09;;;;;;;19.60;3.22;;;;;;;;;;4971327;28;20039;-71
2022/04/27 09:22:05;;;;;;;13.50;2.38;;;;;;;;;;4973384;28;20385;-73
2022/04/27 09:24:51;;;;;;;14.98;2.58;;;;;;;;;;4973674;28;20601;-68
2022/04/27 09:27:20;;;;;;;8.77;2.20;;;;;;;;;;4974001;28;20039;-69
2022/04/27 09:30:16;;;;;;;15.35;2.35;;;;;;;;;;4973786;28;20019;-74
2022/04/27 09:32:51;;;;;;;12.35;2.70;;;;;;;;;;4973993;28;20035;-74
2022/04/27 09:35:37;;;;;;;13.18;2.83;;;;;;;;;;4974001;28;20030;-73
2022/04/27 09:38:17;;;;;;;12.38;2.33;;;;;;;;;;4973829;28;20088;-72
2022/04/27 09:40:50;;;;;;;10.80;2.10;;;;;;;;;;4973615;28;20485;-70
2022/04/27 09:43:16;;;;;;;18.50;3.35;;;;;;;;;;4973858;28;20448;-73
2022/04/27 09:45:44;;;;;;;9.90;2.50;;;;;;;;;;4988444;28;20121;-74
2022/04/27 09:48:17;;;;;;;12.65;2.58;;;;;;;;;;4973309;28;20035;-75
2022/04/27 09:50:52;;;;;;;13.05;2.45;;;;;;;;;;4973304;28;20070;-79
2022/04/27 09:53:19;;;;;;;12.68;2.67;;;;;;;;;;4974459;28;20035;-77
2022/04/27 09:55:50;;;;;;;11.65;2.30;;;;;;;;;;4973496;28;20023;-73
2022/04/27 09:58:19;;;;;;;9.82;2.30;;;;;;;;;;4973204;28;20054;-74
2022/04/27 10:00:47;;;;;;;12.38;2.22;;;;;;;;;;4974123;28;20038;-73
2022/04/27 10:03:15;;;;;;;14.80;2.63;;;;;;;;;;4973757;28;20042;-74
2022/04/27 10:05:43;;;;;;;6.80;1.95;;;;;;;;;;4973848;28;20378;-75
2022/04/27 10:08:10;;;;;;;12.60;2.50;;;;;;;;;;4973931;28;20066;-70
2022/04/27 10:10:47;;;;;;;14.43;2.40;;;;;;;;;;4973973;28;20027;-75
2022/04/27 10:13:15;;;;;;;12.40;2.45;;;;;;;;;;4973439;28;20042;-73
2022/04/27 10:15:43;;;;;;;9.02;2.35;;;;;;;;;;4973384;28;20095;-75
2022/04/27 10:18:16;;;;;;;11.82;2.90;;;;;;;;;;4973445;28;20067;-73
2022/04/27 10:20:44;;;;;;;15.02;2.55;;;;;;;;;;4973342;28;20035;-74
2022/04/27 10:23:19;;;;;;;16.08;3.17;;;;;;;;;;4972899;28;20038;-75
2022/04/27 10:26:10;;;;;;;11.18;2.15;;;;;;;;;;4973274;28;20038;-71
2022/04/27 10:28:57;;;;;;;12.23;2.25;;;;;;;;;;4973680;28;20031;-68
2022/04/27 10:31:45;;;;;;;16.05;2.45;;;;;;;;;;4972884;28;20446;-74
2022/04/27 10:34:17;;;;;;;14.35;2.63;;;;;;;;;;4974212;28;20038;-77
2022/04/27 10:36:44;;;;;;;14.38;2.75;;;;;;;;;;4977499;28;20031;-67
2022/04/27 10:39:15;;;;;;;16.45;2.65;;;;;;;;;;4977806;28;20058;-70
2022/04/27 10:41:47;;;;;;;15.20;2.53;;;;;;;;;;4977087;28;20038;-72
2022/04/27 10:44:14;;;;;;;14.27;2.07;;;;;;;;;;4977139;28;20039;-76
2022/04/27 10:46:43;;;;;;;10.75;2.65;;;;;;;;;;4977326;28;20724;-73
2022/04/27 10:49:27;;;;;;;11.57;2.38;;;;;;;;;;4977168;28;20031;-70
2022/04/27 10:52:10;;;;;;;8.02;2.05;;;;;;;;;;4977031;28;20061;-73
2022/04/27 10:54:38;;;;;;;10.05;2.53;;;;;;;;;;4976757;28;20162;-78
2022/04/27 10:57:19;;;;;;;12.40;2.35;;;;;;;;;;4976755;28;20078;-74
2022/04/27 11:00:05;;;;;;;11.82;2.50;;;;;;;;;;4976254;28;20146;-74
2022/04/27 11:02:30;;;;;;;11.57;2.05;;;;;;;;;;4984084;28;20030;-69
2022/04/27 11:04:57;;;;;;;11.50;2.10;;;;;;;;;;4978827;28;20034;-76
2022/04/27 11:07:34;;;;;;;12.27;2.55;;;;;;;;;;4975515;28;20150;-75
2022/04/27 11:10:14;;;;;;;7.30;1.85;;;;;;;;;;4975567;28;20102;-68
2022/04/27 11:12:43;;;;;;;11.52;2.67;;;;;;;;;;4976479;28;20041;-74
2022/04/27 11:15:11;;;;;;;16.15;2.70;;;;;;;;;;4971387;28;20466;-76
2022/04/27 11:17:40;;;;;;;12.27;2.60;;;;;;;;;;4991239;28;20031;-70
2022/04/27 11:20:27;;;;;;;10.77;2.30;;;;;;;;;;4976401;28;20023;-67
2022/04/27 11:22:53;;;;;;;9.30;2.35;;;;;;;;;;4976281;28;20410;-76
2022/04/27 11:25:33;;;;;;;10.38;2.28;;;;;;;;;;4975399;28;20080;-72
2022/04/27 11:28:00;;;;;;;8.93;2.28;;;;;;;;;;4981732;28;20449;-73
2022/04/27 11:30:28;;;;;;;9.05;2.08;;;;;;;;;;4973793;28;20548;-68
2022/04/27 11:32:54;;;;;;;9.43;2.80;;;;;;;;;;4977905;28;20074;-68
2022/04/27 11:35:24;;;;;;;13.05;2.58;;;;;;;;;;4975594;28;20027;-69
2022/04/27 11:37:54;;;;;;;18.00;2.65;;;;;;;;;;4956284;28;20716;-72
2022/04/27 11:40:27;;;;;;;10.90;2.28;;;;;;;;;;4973807;28;20038;-67
2022/04/27 11:42:57;;;;;;;11.43;2.40;;;;;;;;;;4975736;28;20496;-70
2022/04/27 11:45:26;;;;;;;15.75;2.88;;;;;;;;;;4974407;28;20031;-68
2022/04/27 11:47:59;;;;;;;14.07;2.30;;;;;;;;;;4976117;28;20023;-73
2022/04/27 11:50:26;;;;;;;;;;;;;;;;;;4976520;28;20129;-69
2022/04/27 11:53:18;;;;;;;9.68;2.40;;;;;;;;;;4975910;28;20312;-71
2022/04/27 11:55:49;;;;;;;13.65;2.67;;;;;;;;;;4977692;28;20059;-72
2022/04/27 11:58:22;;;;;;;10.30;2.10;;;;;;;;;;4969377;28;20042;-75
2022/04/27 12:00:49;;;;;;;15.98;2.78;;;;;;;;;;4973669;28;20101;-76
2022/04/27 12:03:15;;;;;;;11.18;2.13;;;;;;;;;;4973471;28;20043;-74
2022/04/27 12:05:41;;;;;;;12.50;3.08;;;;;;;;;;4974457;28;20058;-72
2022/04/27 12:08:11;;;;;;;16.30;3.10;;;;;;;;;;4974505;28;20027;-72
2022/04/27 12:10:42;;;;;;;11.05;2.35;;;;;;;;;;4974891;28;20170;-75
2022/04/27 12:13:12;;;;;;;9.52;2.50;;;;;;;;;;4975371;28;20718;-75
2022/04/27 12:15:41;;;;;;;9.98;2.50;;;;;;;;;;4975196;28;20030;-75
2022/04/27 12:18:13;;;;;;;12.93;2.20;;;;;;;;;;4974628;28;20042;-72
2022/04/27 12:20:40;;;;;;;11.40;2.15;;;;;;;;;;4974989;28;20039;-71
2022/04/27 12:23:07;;;;;;;12.10;2.40;;;;;;;;;;4975243;28;20157;-75
2022/04/27 12:26:00;;;;;;;4.45;1.90;;;;;;;;;;4974459;28;20042;-73
2022/04/27 12:28:38;;;;;;;9.65;2.08;;;;;;;;;;4974923;28;20046;-76
2022/04/27 12:31:09;;;;;;;9.77;2.10;;;;;;;;;;4975173;28;20511;-73
2022/04/27 12:33:38;;;;;;;10.70;2.00;;;;;;;;;;4974552;28;20482;-73
2022/04/27 12:39:04;;;;;;;10.07;2.45;;;;;;;;;;4958066;28;20039;-76
2022/04/27 12:41:37;;;;;;;12.43;2.50;;;;;;;;;;4974173;28;20450;-74
2022/04/27 12:44:05;;;;;;;12.55;2.05;;;;;;;;;;4975287;28;20031;-77
2022/04/27 12:46:31;;;;;;;13.52;2.72;;;;;;;;;;4974026;28;20030;-71
2022/04/27 12:49:06;;;;;;;14.65;2.05;;;;;;;;;;4971640;28;20047;-76
2022/04/27 12:51:36;;;;;;;9.57;2.35;;;;;;;;;;4966359;28;20109;-73
2022/04/27 12:54:03;;;;;;;11.52;2.63;;;;;;;;;;4955152;28;20027;-75
2022/04/27 12:56:35;;;;;;;12.80;2.30;;;;;;;;;;4954126;28;20140;-75
2022/04/27 12:59:09;;;;;;;8.43;2.40;;;;;;;;;;4954796;28;20055;-73
2022/04/27 13:01:36;;;;;;;13.75;2.42;;;;;;;;;;4954939;28;20544;-74
2022/04/27 13:04:03;;;;;;;12.15;3.22;;;;;;;;;;4954537;28;20102;-72
2022/04/27 13:06:30;;;;;;;15.23;2.58;;;;;;;;;;4966813;28;20389;-75
2022/04/27 13:11:58;;;;;;;11.40;3.10;;;;;;;;;;4973448;28;20035;-73
2022/04/27 13:14:25;;;;;;;15.82;2.28;;;;;;;;;;4985256;28;20093;-75
2022/04/27 13:16:55;;;;;;;12.15;2.38;;;;;;;;;;4964826;28;20110;-74
2022/04/27 13:19:21;;;;;;;17.15;2.45;;;;;;;;;;4967014;28;20035;-72
2022/04/27 13:21:48;;;;;;;15.82;2.97;;;;;;;;;;4973036;28;20080;-75
2022/04/27 13:24:14;;;;;;;11.90;2.30;;;;;;;;;;4973055;28;20389;-76
2022/04/27 13:26:40;;;;;;;16.80;2.95;;;;;;;;;;4973093;28;20485;-76
2022/04/27 13:29:07;;;;;;;13.68;2.15;;;;;;;;;;4972475;28;20070;-77
2022/04/27 13:31:33;;;;;;;11.50;3.10;;;;;;;;;;4982336;28;20496;-72
2022/04/27 13:34:00;;;;;;;11.25;2.40;;;;;;;;;;4982745;28;20067;-75
2022/04/27 13:36:26;;;;;;;16.38;2.65;;;;;;;;;;4971407;28;20023;-73
2022/04/27 13:38:56;;;;;;;9.82;2.47;;;;;;;;;;4972366;28;20031;-76
2022/04/27 13:41:21;;;;;;;15.68;2.55;;;;;;;;;;4973277;28;20045;-75
2022/04/27 13:43:47;;;;;;;16.50;3.00;;;;;;;;;;4971917;28;20027;-76
2022/04/27 13:46:13;;;;;;;15.27;4.10;;;;;;;;;;4973651;28;20106;-75
2022/04/27 13:48:40;;;;;;;12.25;2.60;;;;;;;;;;4981979;28;20334;-73
2022/04/27 13:51:06;;;;;;;14.02;2.20;;;;;;;;;;4972291;28;20042;-73
2022/04/27 13:53:35;;;;;;;10.85;2.58;;;;;;;;;;4972989;28;20023;-70
2022/04/27 13:56:01;;;;;;;13.90;2.45;;;;;;;;;;4971603;28;20038;-74
2022/04/27 13:58:28;;;;;;;14.07;3.17;;;;;;;;;;4971822;28;20046;-75
2022/04/27 14:00:54;;;;;;;14.48;2.28;;;;;;;;;;4972561;28;20038;-71
2022/04/27 14:03:20;;;;;;;10.32;2.40;;;;;;;;;;4972137;28;20041;-74
2022/04/27 14:05:47;;;;;;;10.02;2.58;;;;;;;;;;4971836;28;20118;-72
2022/04/27 14:08:14;;;;;;;13.40;3.10;;;;;;;;;;4971517;28;20023;-75
2022/04/27 14:10:39;;;;;;;14.30;2.92;;;;;;;;;;4973596;28;20549;-76
2022/04/27 14:13:14;;;;;;;14.65;3.65;;;;;;;;;;4972549;28;20030;-77
2022/04/27 14:18:09;;;;;;;15.88;4.00;;;;;;;;;;4972651;28;20389;-76
2022/04/27 14:18:31;;;;;;;24.05;4.40;;;;;;;;;;4972857;28;20035;-76
2022/04/27 14:20:58;;;;;;;17.10;4.13;;;;;;;;;;4971655;28;20019;-77
2022/04/27 14:23:25;;;;;;;25.52;3.88;;;;;;;;;;4973310;28;20034;-75
2022/04/27 14:25:51;;;;;;;19.10;3.75;;;;;;;;;;4972936;28;20026;-77
2022/04/27 14:28:18;;;;;;;15.45;2.90;;;;;;;;;;4972730;28;20042;-76
2022/04/27 14:30:45;;;;;;;16.88;2.78;;;;;;;;;;4973032;28;20413;-72
2022/04/27 14:33:11;;;;;;;14.95;3.13;;;;;;;;;;4972973;28;20402;-74
2022/04/27 14:35:39;;;;;;;17.48;2.63;;;;;;;;;;4972540;28;20077;-74
2022/04/27 14:38:05;;;;;;;12.07;2.88;;;;;;;;;;4973051;28;20039;-73
2022/04/27 14:40:34;;;;;;;12.88;2.85;;;;;;;;;;4972882;28;20027;-75
2022/04/27 14:43:01;;;;;;;16.48;3.30;;;;;;;;;;4972444;28;20038;-74
2022/04/27 14:45:28;;;;;;;16.90;3.10;;;;;;;;;;4969889;28;20023;-74
2022/04/27 14:47:54;;;;;;;20.50;3.40;;;;;;;;;;4972733;28;20363;-74
2022/04/27 14:50:20;;;;;;;14.13;3.38;;;;;;;;;;4972450;28;20033;-75
2022/04/27 14:52:46;;;;;;;16.25;3.20;;;;;;;;;;4972936;28;20035;-72
2022/04/27 14:55:12;;;;;;;18.85;3.95;;;;;;;;;;4972592;28;20404;-76
2022/04/27 14:57:38;;;;;;;11.18;3.08;;;;;;;;;;4972152;28;20140;-75
2022/04/27 15:00:11;;;;;;;20.45;3.40;;;;;;;;;;4973343;28;20122;-75
2022/04/27 15:02:38;;;;;;;26.85;7.53;;;;;;;;;;4976924;28;20058;-74
2022/04/27 15:05:06;;;;;;;21.08;3.72;;;;;;;;;;4973012;28;20397;-77
2022/04/27 15:07:32;;;;;;;19.88;3.70;;;;;;;;;;4972832;28;20031;-76
2022/04/27 15:09:58;;;;;;;17.92;2.88;;;;;;;;;;4972994;28;20046;-77
2022/04/27 15:12:24;;;;;;;25.92;3.50;;;;;;;;;;4972161;28;20035;-75
2022/04/27 15:14:50;;;;;;;15.88;2.80;;;;;;;;;;4973246;28;20023;-73
2022/04/27 15:17:15;;;;;;;20.45;2.70;;;;;;;;;;4969764;28;20041;-74